createdAt,value
2022-09-18T00:01:42.329Z,96386.97
2022-09-18T00:04:36.217Z,96422.63
2022-09-18T00:07:05.883Z,96500.06
2022-09-18T00:09:34.098Z,96463.00
2022-09-18T00:12:02.708Z,96458.41
2022-09-18T00:14:30.956Z,96486.72
2022-09-18T00:16:59.393Z,96427.97
2022-09-18T00:19:28.189Z,96446.66
2022-09-18T00:21:56.478Z,96475.19
2022-09-18T00:24:26.045Z,96471.72
2022-09-18T00:26:54.219Z,96438.09
2022-09-18T00:29:22.413Z,96487.44
2022-09-18T00:31:50.806Z,96491.59
2022-09-18T00:34:19.134Z,96437.13
2022-09-18T00:36:47.440Z,96471.72
2022-09-18T00:39:16.261Z,96485.81
2022-09-18T00:41:46.046Z,96498.03
2022-09-18T00:44:38.575Z,96487.19
2022-09-18T00:47:22.880Z,96472.88
2022-09-18T00:49:58.746Z,96469.44
2022-09-18T00:52:31.193Z,96490.63
2022-09-18T00:55:06.252Z,96336.91
2022-09-18T00:57:41.252Z,96463.66
2022-09-18T01:00:13.235Z,96480.78
2022-09-18T01:02:43.279Z,96442.69
2022-09-18T01:05:14.825Z,96477.50
2022-09-18T01:08:07.613Z,96435.19
2022-09-18T01:10:54.586Z,96441.16
2022-09-18T01:13:35.892Z,96429.28
2022-09-18T01:16:19.679Z,96405.34
2022-09-18T01:18:58.328Z,96426.94
2022-09-18T01:21:32.542Z,96478.00
2022-09-18T01:24:34.142Z,96350.69
2022-09-18T01:27:09.922Z,96416.16
2022-09-18T01:29:52.193Z,96433.84
2022-09-18T01:32:27.837Z,96405.75
2022-09-18T01:35:09.876Z,96495.66
2022-09-18T01:37:49.205Z,96498.41
2022-09-18T01:40:26.694Z,96430.31
2022-09-18T01:43:03.060Z,96459.84
2022-09-18T01:45:36.927Z,96452.66
2022-09-18T01:48:09.033Z,96435.06
2022-09-18T01:50:47.438Z,96431.22
2022-09-18T01:53:20.874Z,96461.72
2022-09-18T01:55:54.983Z,96432.03
2022-09-18T01:58:26.037Z,96509.88
2022-09-18T02:01:00.759Z,96467.84
2022-09-18T02:03:34.570Z,96407.34
2022-09-18T02:06:12.935Z,96494.06
2022-09-18T02:08:47.843Z,96477.22
2022-09-18T02:11:19.684Z,96450.75
2022-09-18T02:13:55.448Z,96395.81
2022-09-18T02:16:37.593Z,96477.00
2022-09-18T02:19:15.466Z,96478.41
2022-09-18T02:21:48.645Z,96481.50
2022-09-18T02:24:21.388Z,96475.50
2022-09-18T02:26:53.808Z,96451.38
2022-09-18T02:29:24.296Z,96460.16
2022-09-18T02:31:53.932Z,96446.66
2022-09-18T02:34:22.733Z,96464.16
2022-09-18T02:37:35.335Z,96447.19
2022-09-18T02:40:24.547Z,96472.47
2022-09-18T02:43:07.069Z,96428.91
2022-09-18T02:45:43.901Z,96587.59
2022-09-18T02:48:37.915Z,96455.44
2022-09-18T02:51:12.980Z,96447.19
2022-09-18T02:53:47.214Z,96449.88
2022-09-18T02:56:29.809Z,96469.22
2022-09-18T02:59:06.260Z,96448.75
2022-09-18T03:01:37.780Z,96467.78
2022-09-18T03:04:14.174Z,96464.47
2022-09-18T03:06:57.677Z,96497.53
2022-09-18T03:09:26.991Z,96463.34
2022-09-18T03:11:55.923Z,96435.78
2022-09-18T03:14:24.430Z,96455.13
2022-09-18T03:16:52.672Z,96464.47
2022-09-18T03:19:22.488Z,96426.66
2022-09-18T03:21:52.809Z,96424.31
2022-09-18T03:24:25.309Z,96470.00
2022-09-18T03:26:54.946Z,96460.41
2022-09-18T03:29:25.702Z,96437.44
2022-09-18T03:31:54.530Z,96363.38
2022-09-18T03:34:25.069Z,96466.56
2022-09-18T03:36:53.401Z,96445.00
2022-09-18T03:39:21.607Z,96450.59
2022-09-18T03:41:52.097Z,96468.97
2022-09-18T03:44:20.447Z,96454.88
2022-09-18T03:46:48.809Z,96435.78
2022-09-18T03:49:17.070Z,96444.69
2022-09-18T03:51:46.798Z,96425.28
2022-09-18T03:54:15.647Z,96436.00
2022-09-18T03:57:06.737Z,96453.91
2022-09-18T04:00:02.052Z,96426.31
2022-09-18T04:02:46.971Z,96455.22
2022-09-18T04:05:35.933Z,96449.28
2022-09-18T04:08:24.255Z,96453.00
2022-09-18T04:11:14.202Z,96496.13
2022-09-18T04:13:43.568Z,96465.44
2022-09-18T04:16:14.582Z,96448.66
2022-09-18T04:18:43.409Z,96469.53
2022-09-18T04:21:12.307Z,96396.72
2022-09-18T04:23:41.826Z,96395.25
2022-09-18T04:26:13.787Z,96421.81
2022-09-18T04:28:48.571Z,96445.09
2022-09-18T04:31:16.802Z,96456.94
2022-09-18T04:33:45.295Z,96389.94
2022-09-18T04:36:14.234Z,96452.34
2022-09-18T04:38:44.077Z,96470.97
2022-09-18T04:41:12.396Z,96447.22
2022-09-18T04:43:40.611Z,96477.47
2022-09-18T04:46:09.625Z,96473.66
2022-09-18T04:48:38.681Z,96469.53
2022-09-18T04:51:08.760Z,96484.50
2022-09-18T04:53:50.232Z,96390.84
2022-09-18T04:56:18.872Z,96452.97
2022-09-18T04:58:51.020Z,96482.22
2022-09-18T05:01:19.541Z,96459.88
2022-09-18T05:03:48.036Z,96479.88
2022-09-18T05:06:25.052Z,96439.34
2022-09-18T05:08:54.677Z,96422.03
2022-09-18T05:11:24.085Z,96490.72
2022-09-18T05:13:56.560Z,96471.72
2022-09-18T05:16:25.507Z,96526.13
2022-09-18T05:19:15.875Z,96488.06
2022-09-18T05:21:44.149Z,96492.72
2022-09-18T05:24:14.818Z,96476.56
2022-09-18T05:26:43.974Z,96498.66
2022-09-18T05:29:13.079Z,96510.66
2022-09-18T05:31:42.891Z,96441.84
2022-09-18T05:34:11.171Z,96442.94
2022-09-18T05:36:41.655Z,96437.22
2022-09-18T05:39:13.068Z,96505.13
2022-09-18T05:41:45.074Z,96488.34
2022-09-18T05:44:14.111Z,96458.81
2022-09-18T05:46:42.565Z,96483.94
2022-09-18T05:49:10.984Z,96460.69
2022-09-18T05:51:39.459Z,96519.44
2022-09-18T05:54:07.686Z,96439.41
2022-09-18T05:56:43.826Z,96419.56
2022-09-18T05:59:13.230Z,96210.50
2022-09-18T06:01:47.912Z,96481.38
2022-09-18T06:04:27.421Z,96501.53
2022-09-18T06:07:07.383Z,96432.75
2022-09-18T06:09:55.638Z,96507.22
2022-09-18T06:12:29.638Z,96500.50
2022-09-18T06:14:57.881Z,96504.78
2022-09-18T06:17:26.570Z,96498.56
2022-09-18T06:19:57.683Z,96511.22
2022-09-18T06:22:26.822Z,96494.94
2022-09-18T06:24:55.141Z,96510.44
2022-09-18T06:27:31.875Z,96469.03
2022-09-18T06:30:04.368Z,96501.81
2022-09-18T06:32:35.028Z,96476.78
2022-09-18T06:35:04.179Z,96492.31
2022-09-18T06:37:32.800Z,96523.72
2022-09-18T06:40:11.247Z,96498.63
2022-09-18T06:43:01.680Z,96489.06
2022-09-18T06:45:58.778Z,96485.28
2022-09-18T06:48:29.483Z,96556.91
2022-09-18T06:51:00.577Z,96528.06
2022-09-18T06:53:34.695Z,96430.44
2022-09-18T06:56:05.475Z,96568.75
2022-09-18T06:58:38.252Z,96515.00
2022-09-18T07:01:06.949Z,96502.81
2022-09-18T07:03:41.100Z,96486.66
2022-09-18T07:06:15.337Z,96456.63
2022-09-18T07:08:47.064Z,96451.03
2022-09-18T07:11:26.464Z,96518.97
2022-09-18T07:13:56.008Z,96556.72
2022-09-18T07:16:24.360Z,96536.72
2022-09-18T07:18:53.845Z,96446.81
2022-09-18T07:21:22.343Z,96511.84
2022-09-18T07:23:50.545Z,96541.94
2022-09-18T07:26:19.144Z,96542.78
2022-09-18T07:28:48.711Z,96512.75
2022-09-18T07:31:23.201Z,96528.06
2022-09-18T07:33:53.219Z,96538.16
2022-09-18T07:36:23.355Z,96543.53
2022-09-18T07:38:52.516Z,96479.88
2022-09-18T07:41:22.077Z,96526.53
2022-09-18T07:43:52.208Z,96485.91
2022-09-18T07:46:21.930Z,96414.50
2022-09-18T07:49:01.436Z,96499.47
2022-09-18T07:51:31.415Z,96504.66
2022-09-18T07:54:00.860Z,96486.09
2022-09-18T07:56:49.802Z,96531.69
2022-09-18T07:59:21.796Z,96521.78
2022-09-18T08:01:58.545Z,96549.69
2022-09-18T08:04:35.865Z,96512.81
2022-09-18T08:07:22.787Z,96475.63
2022-09-18T08:10:10.976Z,96539.72
2022-09-18T08:12:59.592Z,96499.00
2022-09-18T08:15:44.739Z,96516.56
2022-09-18T08:18:22.560Z,96509.06
2022-09-18T08:21:24.929Z,96569.81
2022-09-18T08:23:56.939Z,96499.91
2022-09-18T08:26:25.227Z,96513.09
2022-09-18T08:28:56.042Z,96515.38
2022-09-18T08:31:24.332Z,96520.28
2022-09-18T08:33:57.822Z,96571.56
2022-09-18T08:36:26.685Z,96551.28
2022-09-18T08:39:10.164Z,96539.69
2022-09-18T08:42:28.919Z,96515.94
2022-09-18T08:45:05.148Z,96602.25
2022-09-18T08:47:43.938Z,96536.22
2022-09-18T08:50:19.892Z,96565.19
2022-09-18T08:52:52.927Z,96558.19
2022-09-18T08:55:36.713Z,96521.38
2022-09-18T08:58:31.838Z,96529.50
2022-09-18T09:01:06.285Z,96520.16
2022-09-18T09:04:02.125Z,96550.00
2022-09-18T09:07:00.166Z,96549.38
2022-09-18T09:09:55.050Z,96480.56
2022-09-18T09:12:34.539Z,96559.59
2022-09-18T09:15:25.402Z,96537.47
2022-09-18T09:18:12.933Z,96531.03
2022-09-18T09:20:51.570Z,96550.66
2022-09-18T09:23:42.067Z,96563.09
2022-09-18T09:26:24.765Z,96558.69
2022-09-18T09:29:24.277Z,96532.84
2022-09-18T09:32:25.896Z,96548.81
2022-09-18T09:35:21.176Z,96546.94
2022-09-18T09:38:21.102Z,96499.59
2022-09-18T09:40:53.130Z,96560.16
2022-09-18T09:43:28.584Z,96582.38
2022-09-18T09:46:00.981Z,96485.47
2022-09-18T09:48:37.209Z,96536.34
2022-09-18T09:51:16.605Z,96482.22
2022-09-18T09:53:46.230Z,96544.91
2022-09-18T09:56:25.505Z,96534.06
2022-09-18T09:59:08.147Z,96581.97
2022-09-18T10:01:50.087Z,96526.47
2022-09-18T10:04:31.576Z,96560.28
2022-09-18T10:07:10.787Z,96579.03
2022-09-18T10:09:47.125Z,96562.81
2022-09-18T10:12:26.009Z,96577.03
2022-09-18T10:15:09.665Z,96483.19
2022-09-18T10:17:42.380Z,96587.81
2022-09-18T10:20:17.375Z,96543.34
2022-09-18T10:22:47.471Z,96528.66
2022-09-18T10:25:27.725Z,96566.25
2022-09-18T10:27:57.521Z,96533.13
2022-09-18T10:30:25.763Z,96511.69
2022-09-18T10:32:55.383Z,96502.69
2022-09-18T10:35:42.910Z,96520.41
2022-09-18T10:38:34.672Z,96519.81
2022-09-18T10:41:37.998Z,96550.16
2022-09-18T10:44:23.712Z,96529.44
2022-09-18T10:47:03.544Z,96551.66
2022-09-18T10:49:36.060Z,96525.25
2022-09-18T10:52:35.932Z,96529.53
2022-09-18T10:55:21.790Z,96542.84
2022-09-18T10:58:14.357Z,96538.25
2022-09-18T11:00:52.797Z,96534.31
2022-09-18T11:03:34.818Z,96535.66
2022-09-18T11:06:06.428Z,96526.97
2022-09-18T11:08:38.123Z,96533.28
2022-09-18T11:11:09.822Z,96506.63
2022-09-18T11:13:45.344Z,96496.91
2022-09-18T11:16:27.428Z,96479.69
2022-09-18T11:19:07.872Z,96513.06
2022-09-18T11:21:47.103Z,96518.38
2022-09-18T11:24:25.797Z,96498.28
2022-09-18T11:27:02.217Z,96495.81
2022-09-18T11:29:39.615Z,96511.44
2022-09-18T11:32:20.661Z,96471.50
2022-09-18T11:34:54.085Z,96442.72
2022-09-18T11:37:31.568Z,96437.44
2022-09-18T11:40:05.701Z,96488.09
2022-09-18T11:42:34.065Z,96474.25
2022-09-18T11:45:21.505Z,96472.94
2022-09-18T11:47:55.880Z,96467.00
2022-09-18T11:50:27.735Z,96486.09
2022-09-18T11:53:01.357Z,96475.03
2022-09-18T11:55:37.722Z,96442.63
2022-09-18T11:58:13.890Z,96514.84
2022-09-18T12:00:48.149Z,96420.16
2022-09-18T12:03:24.082Z,96464.94
2022-09-18T12:05:56.572Z,96424.53
2022-09-18T12:08:42.748Z,96501.13
2022-09-18T12:11:21.894Z,96439.56
2022-09-18T12:14:05.249Z,96456.31
2022-09-18T12:16:47.976Z,96460.88
2022-09-18T12:19:27.795Z,96422.66
2022-09-18T12:22:05.217Z,96515.16
2022-09-18T12:24:34.856Z,96470.97
2022-09-18T12:27:27.645Z,96411.19
2022-09-18T12:30:10.426Z,96452.78
2022-09-18T12:33:05.928Z,96399.13
2022-09-18T12:36:03.498Z,96440.63
2022-09-18T12:39:00.011Z,96422.41
2022-09-18T12:41:43.462Z,96411.09
2022-09-18T12:44:50.830Z,96408.69
2022-09-18T12:47:40.177Z,96380.63
2022-09-18T12:50:34.234Z,96389.75
2022-09-18T12:53:20.506Z,96436.16
2022-09-18T12:56:15.683Z,96415.25
2022-09-18T12:59:19.746Z,96433.38
2022-09-18T13:01:53.696Z,96428.09
2022-09-18T13:04:28.817Z,96382.72
2022-09-18T13:07:04.997Z,96395.81
2022-09-18T13:09:42.409Z,96346.13
2022-09-18T13:12:19.395Z,96454.22
2022-09-18T13:14:53.574Z,96383.56
2022-09-18T13:17:27.380Z,96248.13
2022-09-18T13:20:03.056Z,96373.19
2022-09-18T13:22:37.007Z,96377.28
2022-09-18T13:25:20.552Z,96403.25
2022-09-18T13:27:49.171Z,96347.84
2022-09-18T13:30:26.816Z,96391.28
2022-09-18T13:32:57.041Z,96375.81
2022-09-18T13:35:29.906Z,96408.03
2022-09-18T13:38:17.909Z,96410.38
2022-09-18T13:40:56.535Z,96248.59
2022-09-18T13:43:41.430Z,96363.25
2022-09-18T13:46:35.257Z,96313.16
2022-09-18T13:49:21.097Z,96390.56
2022-09-18T13:51:50.018Z,96361.53
2022-09-18T13:54:29.684Z,96342.19
2022-09-18T13:57:22.587Z,96386.84
2022-09-18T13:59:54.218Z,96354.59
2022-09-18T14:02:35.517Z,96407.63
2022-09-18T14:05:31.076Z,96369.59
2022-09-18T14:08:38.219Z,96413.91
2022-09-18T14:11:17.310Z,96359.31
2022-09-18T14:13:53.929Z,96381.66
2022-09-18T14:16:30.859Z,96356.84
2022-09-18T14:19:04.949Z,96395.03
2022-09-18T14:21:39.889Z,96379.78
2022-09-18T14:24:36.839Z,96321.09
2022-09-18T14:27:44.350Z,96351.00
2022-09-18T14:30:21.772Z,96348.28
2022-09-18T14:33:17.343Z,96162.72
2022-09-18T14:35:54.302Z,96378.47
2022-09-18T14:38:29.675Z,96294.16
2022-09-18T14:41:09.070Z,96375.22
2022-09-18T14:43:40.649Z,96428.88
2022-09-18T14:46:20.151Z,96349.59
2022-09-18T14:48:48.892Z,96337.44
2022-09-18T14:51:23.302Z,96392.91
2022-09-18T14:53:53.749Z,96275.81
2022-09-18T14:56:32.192Z,96372.25
2022-09-18T14:59:05.195Z,96381.47
2022-09-18T15:01:40.586Z,96335.97
2022-09-18T15:04:16.421Z,96377.06
2022-09-18T15:06:48.352Z,96305.94
2022-09-18T15:09:28.585Z,96351.97
2022-09-18T15:12:02.627Z,96359.16
2022-09-18T15:14:42.744Z,96103.72
2022-09-18T15:17:21.449Z,96293.47
2022-09-18T15:19:58.680Z,96337.50
2022-09-18T15:22:28.677Z,96271.00
2022-09-18T15:25:00.671Z,96336.56
2022-09-18T15:27:29.675Z,96286.59
2022-09-18T15:30:01.706Z,96308.00
2022-09-18T15:32:39.327Z,96266.66
2022-09-18T15:35:09.663Z,96322.56
2022-09-18T15:37:40.995Z,96346.50
2022-09-18T15:40:18.722Z,96289.00
2022-09-18T15:42:58.022Z,96341.19
2022-09-18T15:45:29.387Z,96293.13
2022-09-18T15:48:01.326Z,96351.41
2022-09-18T15:50:43.148Z,96321.56
2022-09-18T15:53:32.223Z,96289.56
2022-09-18T15:56:05.605Z,96310.22
2022-09-18T15:58:52.405Z,96332.00
2022-09-18T16:01:25.327Z,96331.63
2022-09-18T16:04:09.670Z,96315.38
2022-09-18T16:06:50.920Z,96321.81
2022-09-18T16:09:37.758Z,96339.53
2022-09-18T16:12:36.950Z,96297.56
2022-09-18T16:15:22.232Z,96350.66
2022-09-18T16:18:01.067Z,96294.22
2022-09-18T16:20:38.394Z,96345.53
2022-09-18T16:23:20.764Z,96309.50
2022-09-18T16:26:05.901Z,96303.13
2022-09-18T16:28:37.137Z,96285.38
2022-09-18T16:31:05.636Z,96299.38
2022-09-18T16:33:35.719Z,96151.50
2022-09-18T16:36:08.984Z,96300.16
2022-09-18T16:38:37.790Z,96312.44
2022-09-18T16:41:06.226Z,96327.59
2022-09-18T16:43:35.807Z,96314.78
2022-09-18T16:46:04.068Z,96272.19
2022-09-18T16:48:33.519Z,96309.97
2022-09-18T16:51:01.769Z,96296.63
2022-09-18T16:53:31.505Z,96279.28
2022-09-18T16:55:59.804Z,96260.72
2022-09-18T16:58:29.183Z,96271.47
2022-09-18T17:00:58.805Z,96331.41
2022-09-18T17:03:28.201Z,96242.38
2022-09-18T17:05:56.579Z,96265.34
2022-09-18T17:08:24.968Z,96283.03
2022-09-18T17:10:54.758Z,96292.38
2022-09-18T17:13:23.639Z,96297.31
2022-09-18T17:15:51.993Z,96292.25
2022-09-18T17:18:20.392Z,96299.97
2022-09-18T17:20:49.402Z,96321.88
2022-09-18T17:23:17.694Z,96279.91
2022-09-18T17:25:45.990Z,96289.97
2022-09-18T17:28:18.337Z,96286.00
2022-09-18T17:30:46.986Z,96288.69
2022-09-18T17:33:19.790Z,96298.00
2022-09-18T17:35:53.817Z,96314.00
2022-09-18T17:38:22.174Z,96264.72
2022-09-18T17:41:01.372Z,96279.19
2022-09-18T17:43:30.994Z,96286.78
2022-09-18T17:46:03.490Z,96268.66
2022-09-18T17:48:33.243Z,96310.13
2022-09-18T17:51:04.324Z,96267.41
2022-09-18T17:53:34.510Z,96304.53
2022-09-18T17:56:03.278Z,96325.28
2022-09-18T17:58:33.945Z,96291.78
2022-09-18T18:01:02.233Z,96302.31
2022-09-18T18:03:30.482Z,96270.28
2022-09-18T18:06:00.448Z,96267.50
2022-09-18T18:08:29.819Z,96301.84
2022-09-18T18:11:04.666Z,96274.03
2022-09-18T18:13:36.921Z,96318.78
2022-09-18T18:16:07.649Z,96283.28
2022-09-18T18:18:37.022Z,96181.03
2022-09-18T18:21:06.676Z,96270.72
2022-09-18T18:23:38.358Z,96305.09
2022-09-18T18:26:09.029Z,96285.56
2022-09-18T18:28:40.573Z,96361.28
2022-09-18T18:31:12.581Z,96286.22
2022-09-18T18:33:43.479Z,96319.06
2022-09-18T18:36:15.471Z,96342.44
2022-09-18T18:38:46.159Z,96359.19
2022-09-18T18:41:16.233Z,96145.81
2022-09-18T18:43:46.161Z,96312.00
2022-09-18T18:46:15.474Z,96315.34
2022-09-18T18:48:45.343Z,96282.97
2022-09-18T18:51:17.662Z,96302.38
2022-09-18T18:53:46.005Z,96329.66
2022-09-18T18:56:17.518Z,96328.00
2022-09-18T18:58:47.131Z,96310.91
2022-09-18T19:01:18.060Z,96330.13
2022-09-18T19:03:51.989Z,96311.53
2022-09-18T19:06:21.404Z,96326.81
2022-09-18T19:08:49.553Z,96310.22
2022-09-18T19:11:18.970Z,96321.09
2022-09-18T19:13:52.797Z,96317.19
2022-09-18T19:16:21.293Z,96347.56
2022-09-18T19:18:54.054Z,96318.97
2022-09-18T19:21:22.974Z,96317.19
2022-09-18T19:23:52.442Z,96311.75
2022-09-18T19:26:21.465Z,96237.91
2022-09-18T19:28:52.711Z,96355.47
2022-09-18T19:31:21.852Z,96335.63
2022-09-18T19:33:52.447Z,96287.63
2022-09-18T19:36:22.741Z,96313.25
2022-09-18T19:38:55.484Z,96328.69
2022-09-18T19:41:34.242Z,96295.69
2022-09-18T19:44:07.221Z,96327.06
2022-09-18T19:46:35.724Z,96337.59
2022-09-18T19:49:04.110Z,96248.56
2022-09-18T19:51:35.255Z,96245.63
2022-09-18T19:54:04.008Z,96297.47
2022-09-18T19:56:42.870Z,96314.22
2022-09-18T19:59:13.277Z,96261.56
2022-09-18T20:01:45.158Z,96295.19
2022-09-18T20:04:15.202Z,96287.16
2022-09-18T20:07:10.093Z,96307.00
2022-09-18T20:09:40.178Z,96264.03
2022-09-18T20:12:10.312Z,96290.44
2022-09-18T20:14:39.876Z,96264.97
2022-09-18T20:17:08.286Z,96302.22
2022-09-18T20:19:37.072Z,96316.19
2022-09-18T20:22:05.609Z,96291.56
2022-09-18T20:24:34.644Z,96250.84
2022-09-18T20:27:02.894Z,96302.38
2022-09-18T20:29:31.189Z,96245.59
2022-09-18T20:32:00.821Z,96299.44
2022-09-18T20:34:29.012Z,96306.28
2022-09-18T20:36:57.829Z,96261.78
2022-09-18T20:39:26.094Z,96267.84
2022-09-18T20:41:55.394Z,96252.59
2022-09-18T20:44:23.646Z,96266.22
2022-09-18T20:46:53.175Z,96290.47
2022-09-18T20:49:23.050Z,96282.13
2022-09-18T20:51:51.510Z,96256.03
2022-09-18T20:54:24.396Z,96282.09
2022-09-18T20:56:54.261Z,96218.00
2022-09-18T20:59:22.510Z,96198.97
2022-09-18T21:01:51.811Z,96212.28
2022-09-18T21:04:22.257Z,96265.19
2022-09-18T21:06:55.227Z,96201.72
2022-09-18T21:09:24.992Z,96258.94
2022-09-18T21:11:53.272Z,96053.25
2022-09-18T21:14:24.082Z,96286.50
2022-09-18T21:16:52.302Z,96295.72
2022-09-18T21:19:26.109Z,96259.94
2022-09-18T21:21:54.747Z,96292.06
2022-09-18T21:24:23.347Z,96313.72
2022-09-18T21:26:51.673Z,96032.31
2022-09-18T21:29:22.861Z,96221.91
2022-09-18T21:31:53.008Z,96287.66
2022-09-18T21:34:26.965Z,96284.47
2022-09-18T21:36:59.100Z,96224.97
2022-09-18T21:39:29.194Z,96239.47
2022-09-18T21:41:58.726Z,96322.53
2022-09-18T21:44:29.464Z,96241.84
2022-09-18T21:47:00.298Z,96267.75
2022-09-18T21:49:30.884Z,96320.38
2022-09-18T21:52:02.202Z,96260.50
2022-09-18T21:54:31.893Z,96311.47
2022-09-18T21:57:00.910Z,96338.53
2022-09-18T21:59:36.535Z,96366.47
2022-09-18T22:02:08.561Z,96366.25
2022-09-18T22:04:39.606Z,96374.13
2022-09-18T22:07:10.690Z,96349.19
2022-09-18T22:09:38.891Z,96387.44
2022-09-18T22:12:08.233Z,96362.13
2022-09-18T22:14:38.337Z,96389.97
2022-09-18T22:17:09.621Z,96394.53
2022-09-18T22:19:41.559Z,96347.84
2022-09-18T22:22:11.198Z,96340.28
2022-09-18T22:24:39.960Z,96406.59
2022-09-18T22:27:08.868Z,96376.19
2022-09-18T22:29:39.917Z,96345.59
2022-09-18T22:32:10.057Z,96379.22
2022-09-18T22:34:41.736Z,96377.31
2022-09-18T22:37:11.556Z,96413.63
2022-09-18T22:39:39.766Z,96362.66
2022-09-18T22:42:07.957Z,96323.75
2022-09-18T22:44:36.212Z,96306.34
2022-09-18T22:47:04.882Z,96356.09
2022-09-18T22:49:33.034Z,96386.47
2022-09-18T22:52:03.198Z,96370.44
2022-09-18T22:54:31.701Z,96350.31
2022-09-18T22:56:59.920Z,96388.09
2022-09-18T22:59:29.644Z,96331.06
2022-09-18T23:02:00.189Z,96364.06
2022-09-18T23:04:31.603Z,96340.72
2022-09-18T23:07:01.841Z,96405.63
2022-09-18T23:09:30.527Z,96399.94
2022-09-18T23:12:00.235Z,96372.84
2022-09-18T23:14:31.116Z,96388.81
2022-09-18T23:17:01.057Z,96371.50
2022-09-18T23:19:32.266Z,96391.25
2022-09-18T23:22:02.194Z,96359.16
2022-09-18T23:24:31.658Z,96329.72
2022-09-18T23:27:00.215Z,96382.72
2022-09-18T23:29:53.070Z,96431.03
2022-09-18T23:32:21.268Z,96359.66
2022-09-18T23:34:50.523Z,96398.56
2022-09-18T23:37:20.073Z,96379.09
2022-09-18T23:39:56.487Z,96343.81
2022-09-18T23:42:26.290Z,96414.38
2022-09-18T23:44:54.652Z,96373.84
2022-09-18T23:47:23.525Z,96368.63
2022-09-18T23:49:51.765Z,96389.97
2022-09-18T23:52:21.289Z,96396.41
2022-09-18T23:54:49.496Z,96414.06
2022-09-18T23:57:17.631Z,96339.69
2022-09-18T23:59:45.764Z,96424.63
